createdAt,value
2023-01-28T00:00:00.400Z,2.4
2023-01-28T00:01:03.916Z,2.4
2023-01-28T00:02:00.347Z,2.4
2023-01-28T00:03:00.646Z,2.4
2023-01-28T00:04:00.364Z,2.4
2023-01-28T00:05:00.404Z,2.4
2023-01-28T00:06:01.362Z,2.4
2023-01-28T00:07:00.409Z,2.4
2023-01-28T00:08:00.338Z,2.4
2023-01-28T00:09:00.411Z,2.4
2023-01-28T00:10:00.386Z,2.4
2023-01-28T00:11:00.993Z,2.4
2023-01-28T00:12:00.349Z,2.4
2023-01-28T00:13:00.344Z,2.4
2023-01-28T00:14:00.378Z,2.4
2023-01-28T00:15:00.357Z,2.4
2023-01-28T00:16:01.695Z,2.4
2023-01-28T00:17:00.372Z,2.4
2023-01-28T00:18:00.342Z,2.4
2023-01-28T00:19:00.380Z,2.4
2023-01-28T00:20:00.360Z,2.3
2023-01-28T00:21:03.349Z,2.3
2023-01-28T00:22:00.352Z,2.3
2023-01-28T00:23:00.342Z,2.3
2023-01-28T00:24:00.447Z,2.3
2023-01-28T00:25:00.368Z,2.3
2023-01-28T00:26:01.512Z,2.3
2023-01-28T00:27:00.343Z,2.3
2023-01-28T00:28:00.385Z,2.3
2023-01-28T00:29:00.735Z,2.3
2023-01-28T00:30:00.361Z,2.3
2023-01-28T00:31:09.083Z,2.3
2023-01-28T00:32:00.410Z,2.3
2023-01-28T00:33:00.374Z,2.3
2023-01-28T00:34:00.345Z,2.3
2023-01-28T00:35:00.354Z,2.3
2023-01-28T00:36:01.021Z,2.3
2023-01-28T00:37:00.343Z,2.3
2023-01-28T00:38:00.358Z,2.3
2023-01-28T00:39:00.343Z,2.3
2023-01-28T00:40:00.386Z,2.5
2023-01-28T00:41:10.262Z,2.5
2023-01-28T00:42:00.379Z,2.5
2023-01-28T00:43:00.446Z,2.5
2023-01-28T00:44:00.348Z,2.5
2023-01-28T00:45:00.349Z,2.5
2023-01-28T00:46:00.409Z,2.5
2023-01-28T00:47:00.341Z,2.5
2023-01-28T00:48:00.369Z,2.5
2023-01-28T00:49:00.452Z,2.5
2023-01-28T00:50:00.401Z,2.5
2023-01-28T00:51:00.368Z,2.5
2023-01-28T00:52:00.459Z,2.5
2023-01-28T00:53:00.467Z,2.5
2023-01-28T00:54:00.356Z,2.5
2023-01-28T00:55:00.389Z,2.5
2023-01-28T00:56:00.734Z,2.5
2023-01-28T00:57:00.347Z,2.5
2023-01-28T00:58:00.354Z,2.5
2023-01-28T00:59:00.346Z,2.5
2023-01-28T01:00:00.448Z,2.4
2023-01-28T01:01:10.346Z,2.4
2023-01-28T01:02:00.335Z,2.4
2023-01-28T01:03:00.362Z,2.4
2023-01-28T01:04:00.382Z,2.4
2023-01-28T01:05:00.407Z,2.4
2023-01-28T01:06:00.548Z,2.4
2023-01-28T01:07:00.340Z,2.4
2023-01-28T01:08:00.401Z,2.4
2023-01-28T01:09:01.111Z,2.4
2023-01-28T01:10:00.481Z,2.4
2023-01-28T01:11:01.602Z,2.4
2023-01-28T01:12:00.558Z,2.4
2023-01-28T01:13:00.379Z,2.4
2023-01-28T01:14:00.369Z,2.4
2023-01-28T01:15:00.427Z,2.4
2023-01-28T01:16:01.527Z,2.4
2023-01-28T01:17:00.367Z,2.4
2023-01-28T01:18:00.380Z,2.4
2023-01-28T01:19:00.473Z,2.4
2023-01-28T01:20:00.392Z,2.4
2023-01-28T01:21:00.656Z,2.4
2023-01-28T01:22:00.343Z,2.4
2023-01-28T01:23:00.369Z,2.4
2023-01-28T01:24:00.552Z,2.4
2023-01-28T01:25:00.369Z,2.4
2023-01-28T01:26:00.363Z,2.4
2023-01-28T01:27:00.370Z,2.4
2023-01-28T01:28:00.379Z,2.4
2023-01-28T01:29:00.369Z,2.4
2023-01-28T01:30:00.357Z,2.4
2023-01-28T01:31:02.687Z,2.4
2023-01-28T01:32:00.460Z,2.4
2023-01-28T01:33:00.344Z,2.4
2023-01-28T01:34:00.366Z,2.4
2023-01-28T01:35:01.037Z,2.4
2023-01-28T01:36:00.436Z,2.4
2023-01-28T01:37:00.353Z,2.4
2023-01-28T01:38:00.344Z,2.4
2023-01-28T01:39:00.355Z,2.4
2023-01-28T01:40:00.892Z,2.2
2023-01-28T01:41:00.366Z,2.2
2023-01-28T01:42:00.379Z,2.2
2023-01-28T01:43:00.347Z,2.2
2023-01-28T01:44:01.453Z,2.2
2023-01-28T01:45:02.042Z,2.2
2023-01-28T01:46:00.658Z,2.2
2023-01-28T01:47:00.374Z,2.2
2023-01-28T01:48:00.361Z,2.2
2023-01-28T01:49:05.464Z,2.2
2023-01-28T01:50:02.595Z,2.2
2023-01-28T01:51:03.222Z,2.2
2023-01-28T01:52:02.736Z,2.2
2023-01-28T01:53:03.665Z,2.2
2023-01-28T01:54:01.005Z,2.2
2023-01-28T01:55:03.275Z,2.2
2023-01-28T01:56:01.816Z,2.2
2023-01-28T01:57:01.704Z,2.2
2023-01-28T01:58:03.128Z,2.2
2023-01-28T01:59:00.351Z,2.2
2023-01-28T02:00:01.402Z,2.7
2023-01-28T02:01:01.091Z,2.7
2023-01-28T02:02:02.613Z,2.7
2023-01-28T02:03:00.445Z,2.7
2023-01-28T02:04:06.189Z,2.7
2023-01-28T02:05:01.295Z,2.7
2023-01-28T02:06:00.304Z,2.7
2023-01-28T02:07:00.513Z,2.7
2023-01-28T02:08:00.520Z,2.7
2023-01-28T02:09:00.378Z,2.7
2023-01-28T02:10:00.555Z,2.7
2023-01-28T02:11:02.072Z,2.7
2023-01-28T02:12:03.487Z,2.7
2023-01-28T02:13:00.431Z,2.7
2023-01-28T02:14:02.191Z,2.7
2023-01-28T02:15:02.685Z,2.7
2023-01-28T02:16:02.063Z,2.7
2023-01-28T02:17:00.856Z,2.7
2023-01-28T02:18:00.365Z,2.7
2023-01-28T02:19:00.781Z,2.7
2023-01-28T02:20:03.218Z,2.3
2023-01-28T02:21:03.587Z,2.3
2023-01-28T02:22:00.314Z,2.3
2023-01-28T02:23:00.306Z,2.3
2023-01-28T02:24:10.285Z,2.3
2023-01-28T02:25:10.238Z,2.3
2023-01-28T02:26:10.249Z,2.3
2023-01-28T02:27:00.286Z,2.3
2023-01-28T02:28:03.581Z,2.3
2023-01-28T02:29:10.272Z,2.3
2023-01-28T02:30:04.935Z,2.3
2023-01-28T02:31:10.385Z,2.3
2023-01-28T02:32:10.258Z,2.3
2023-01-28T02:33:04.495Z,2.3
2023-01-28T02:34:07.736Z,2.3
2023-01-28T02:35:08.818Z,2.3
2023-01-28T02:36:07.300Z,2.3
2023-01-28T02:37:03.668Z,2.3
2023-01-28T02:38:07.952Z,2.3
2023-01-28T02:39:05.103Z,2.3
2023-01-28T02:40:02.842Z,3.1
2023-01-28T02:41:03.622Z,3.1
2023-01-28T02:42:03.714Z,3.1
2023-01-28T02:43:00.321Z,3.1
2023-01-28T02:44:01.438Z,3.1
2023-01-28T02:45:00.321Z,3.1
2023-01-28T02:46:03.104Z,3.1
2023-01-28T02:47:00.351Z,3.1
2023-01-28T02:48:00.323Z,3.1
2023-01-28T02:49:01.354Z,3.1
2023-01-28T02:50:02.221Z,3.1
2023-01-28T02:51:04.359Z,3.1
2023-01-28T02:52:10.267Z,3.1
2023-01-28T02:53:10.254Z,3.1
2023-01-28T02:54:05.964Z,3.1
2023-01-28T02:55:08.524Z,3.1
2023-01-28T02:56:10.259Z,3.1
2023-01-28T02:57:10.234Z,3.1
2023-01-28T02:58:07.576Z,3.1
2023-01-28T02:59:10.254Z,2.7
2023-01-28T03:00:07.800Z,2.7
2023-01-28T03:01:10.258Z,2.7
2023-01-28T03:02:07.881Z,2.7
2023-01-28T03:03:00.411Z,2.7
2023-01-28T03:04:03.597Z,2.7
2023-01-28T03:05:00.308Z,2.7
2023-01-28T03:06:05.637Z,2.7
2023-01-28T03:07:02.230Z,2.7
2023-01-28T03:08:02.232Z,2.7
2023-01-28T03:09:01.921Z,2.7
2023-01-28T03:10:01.098Z,2.7
2023-01-28T03:11:00.319Z,2.7
2023-01-28T03:12:10.249Z,2.7
2023-01-28T03:13:00.367Z,2.7
2023-01-28T03:14:00.708Z,2.7
2023-01-28T03:15:05.140Z,2.7
2023-01-28T03:16:00.506Z,2.7
2023-01-28T03:17:00.623Z,2.7
2023-01-28T03:18:00.301Z,2.7
2023-01-28T03:19:01.312Z,2.4
2023-01-28T03:20:00.351Z,2.4
2023-01-28T03:21:05.717Z,2.4
2023-01-28T03:22:00.552Z,2.4
2023-01-28T03:23:02.362Z,2.4
2023-01-28T03:24:00.359Z,2.4
2023-01-28T03:25:01.205Z,2.4
2023-01-28T03:26:01.655Z,2.4
2023-01-28T03:27:04.838Z,2.4
2023-01-28T03:28:03.319Z,2.4
2023-01-28T03:29:05.727Z,2.4
2023-01-28T03:30:02.540Z,2.4
2023-01-28T03:31:07.775Z,2.4
2023-01-28T03:32:00.473Z,2.4
2023-01-28T03:33:00.813Z,2.4
2023-01-28T03:34:01.921Z,2.4
2023-01-28T03:35:00.422Z,2.4
2023-01-28T03:36:01.197Z,2.4
2023-01-28T03:37:00.380Z,2.4
2023-01-28T03:38:00.591Z,2.4
2023-01-28T03:39:00.731Z,2.2
2023-01-28T03:40:01.268Z,2.2
2023-01-28T03:41:01.603Z,2.2
2023-01-28T03:42:03.368Z,2.2
2023-01-28T03:43:00.328Z,2.2
2023-01-28T03:44:00.340Z,2.2
2023-01-28T03:45:00.368Z,2.2
2023-01-28T03:46:00.498Z,2.2
2023-01-28T03:47:00.318Z,2.2
2023-01-28T03:48:00.312Z,2.2
2023-01-28T03:49:00.293Z,2.2
2023-01-28T03:50:00.439Z,2.2
2023-01-28T03:51:00.375Z,2.2
2023-01-28T03:52:00.318Z,2.2
2023-01-28T03:53:00.339Z,2.2
2023-01-28T03:54:00.325Z,2.2
2023-01-28T03:55:00.341Z,2.2
2023-01-28T03:56:00.327Z,2.2
2023-01-28T03:57:00.327Z,2.2
2023-01-28T03:58:00.343Z,2.2
2023-01-28T03:59:00.310Z,2.5
2023-01-28T04:00:00.325Z,2.5
2023-01-28T04:01:00.293Z,2.5
2023-01-28T04:02:00.466Z,2.5
2023-01-28T04:03:00.370Z,2.5
2023-01-28T04:04:00.379Z,2.5
2023-01-28T04:05:00.297Z,2.5
2023-01-28T04:06:01.748Z,2.5
2023-01-28T04:07:00.336Z,2.5
2023-01-28T04:08:00.310Z,2.5
2023-01-28T04:09:00.346Z,2.5
2023-01-28T04:10:00.321Z,2.5
2023-01-28T04:11:00.575Z,2.5
2023-01-28T04:12:00.619Z,2.5
2023-01-28T04:13:00.305Z,2.5
2023-01-28T04:14:00.310Z,2.5
2023-01-28T04:15:00.300Z,2.5
2023-01-28T04:16:00.367Z,2.5
2023-01-28T04:17:00.356Z,2.5
2023-01-28T04:18:00.331Z,2.5
2023-01-28T04:19:00.303Z,2.8
2023-01-28T04:20:00.342Z,2.8
2023-01-28T04:21:00.297Z,2.8
2023-01-28T04:22:00.329Z,2.8
2023-01-28T04:23:00.397Z,2.8
2023-01-28T04:24:00.386Z,2.8
2023-01-28T04:25:00.325Z,2.8
2023-01-28T04:26:00.321Z,2.8
2023-01-28T04:27:00.324Z,2.8
2023-01-28T04:28:00.518Z,2.8
2023-01-28T04:29:00.319Z,2.8
2023-01-28T04:30:00.305Z,2.8
2023-01-28T04:31:00.396Z,2.8
2023-01-28T04:32:00.317Z,2.8
2023-01-28T04:33:00.319Z,2.8
2023-01-28T04:34:00.296Z,2.8
2023-01-28T04:35:00.336Z,2.8
2023-01-28T04:36:00.328Z,2.8
2023-01-28T04:37:00.337Z,2.8
2023-01-28T04:38:00.332Z,2.8
2023-01-28T04:39:00.376Z,2.3
2023-01-28T04:40:00.319Z,2.3
2023-01-28T04:41:00.327Z,2.3
2023-01-28T04:42:00.321Z,2.3
2023-01-28T04:43:00.365Z,2.3
2023-01-28T04:44:00.322Z,2.3
2023-01-28T04:45:00.315Z,2.3
2023-01-28T04:46:00.310Z,2.3
2023-01-28T04:47:00.333Z,2.3
2023-01-28T04:48:00.295Z,2.3
2023-01-28T04:49:00.436Z,2.3
2023-01-28T04:50:00.321Z,2.3
2023-01-28T04:51:00.319Z,2.3
2023-01-28T04:52:00.312Z,2.3
2023-01-28T04:53:00.317Z,2.3
2023-01-28T04:54:00.368Z,2.3
2023-01-28T04:55:00.312Z,2.3
2023-01-28T04:56:00.325Z,2.3
2023-01-28T04:57:00.303Z,2.3
2023-01-28T04:58:00.325Z,2.3
2023-01-28T04:59:00.341Z,2.3
2023-01-28T05:00:00.321Z,2.3
2023-01-28T05:01:00.420Z,2.3
2023-01-28T05:02:00.392Z,2.3
2023-01-28T05:03:00.401Z,2.3
2023-01-28T05:04:00.338Z,2.3
2023-01-28T05:05:00.301Z,2.3
2023-01-28T05:06:00.299Z,2.3
2023-01-28T05:07:00.309Z,2.3
2023-01-28T05:08:00.324Z,2.3
2023-01-28T05:09:00.322Z,2.3
2023-01-28T05:10:00.318Z,2.3
2023-01-28T05:11:00.338Z,2.3
2023-01-28T05:12:00.314Z,2.3
2023-01-28T05:13:00.321Z,2.3
2023-01-28T05:14:00.294Z,2.3
2023-01-28T05:15:00.685Z,2.3
2023-01-28T05:16:00.327Z,2.3
2023-01-28T05:17:00.440Z,2.3
2023-01-28T05:18:00.349Z,2.3
2023-01-28T05:19:00.687Z,2.9
2023-01-28T05:20:00.326Z,2.9
2023-01-28T05:21:00.301Z,2.9
2023-01-28T05:22:00.295Z,2.9
2023-01-28T05:23:00.327Z,2.9
2023-01-28T05:24:00.411Z,2.9
2023-01-28T05:25:00.342Z,2.9
2023-01-28T05:26:00.326Z,2.9
2023-01-28T05:27:00.324Z,2.9
2023-01-28T05:28:00.293Z,2.9
2023-01-28T05:29:00.318Z,2.9
2023-01-28T05:30:00.354Z,2.9
2023-01-28T05:31:02.380Z,2.9
2023-01-28T05:32:00.325Z,2.9
2023-01-28T05:33:00.315Z,2.9
2023-01-28T05:34:00.443Z,2.9
2023-01-28T05:35:00.621Z,2.9
2023-01-28T05:36:00.320Z,2.9
2023-01-28T05:37:00.300Z,2.9
2023-01-28T05:38:00.392Z,2.9
2023-01-28T05:39:00.320Z,2.7
2023-01-28T05:40:00.292Z,2.7
2023-01-28T05:41:00.307Z,2.7
2023-01-28T05:42:00.312Z,2.7
2023-01-28T05:43:00.314Z,2.7
2023-01-28T05:44:00.392Z,2.7
2023-01-28T05:45:00.318Z,2.7
2023-01-28T05:46:00.417Z,2.7
2023-01-28T05:47:00.306Z,2.7
2023-01-28T05:48:00.323Z,2.7
2023-01-28T05:49:00.347Z,2.7
2023-01-28T05:50:00.338Z,2.7
2023-01-28T05:51:00.325Z,2.7
2023-01-28T05:52:00.295Z,2.7
2023-01-28T05:53:00.339Z,2.7
2023-01-28T05:54:00.296Z,2.7
2023-01-28T05:55:00.300Z,2.7
2023-01-28T05:56:00.302Z,2.7
2023-01-28T05:57:00.352Z,2.7
2023-01-28T05:58:00.368Z,2.7
2023-01-28T05:59:00.295Z,2.7
2023-01-28T06:00:00.372Z,2.7
2023-01-28T06:01:00.342Z,2.7
2023-01-28T06:02:00.345Z,2.7
2023-01-28T06:03:00.296Z,2.7
2023-01-28T06:04:00.318Z,2.7
2023-01-28T06:05:00.477Z,2.7
2023-01-28T06:06:00.324Z,2.7
2023-01-28T06:07:00.318Z,2.7
2023-01-28T06:08:00.322Z,2.7
2023-01-28T06:09:00.301Z,2.7
2023-01-28T06:10:00.334Z,2.7
2023-01-28T06:11:00.301Z,2.7
2023-01-28T06:12:00.324Z,2.7
2023-01-28T06:13:00.308Z,2.7
2023-01-28T06:14:00.293Z,2.7
2023-01-28T06:15:00.298Z,2.7
2023-01-28T06:16:00.695Z,2.7
2023-01-28T06:17:00.349Z,2.7
2023-01-28T06:18:00.353Z,2.7
2023-01-28T06:19:00.346Z,2.9
2023-01-28T06:20:00.341Z,2.9
2023-01-28T06:21:00.341Z,2.9
2023-01-28T06:22:00.305Z,2.9
2023-01-28T06:23:00.316Z,2.9
2023-01-28T06:24:00.391Z,2.9
2023-01-28T06:25:00.323Z,2.9
2023-01-28T06:26:00.360Z,2.9
2023-01-28T06:27:00.327Z,2.9
2023-01-28T06:28:00.320Z,2.9
2023-01-28T06:29:00.357Z,2.9
2023-01-28T06:30:00.444Z,2.9
2023-01-28T06:31:00.407Z,2.9
2023-01-28T06:32:00.412Z,2.9
2023-01-28T06:33:00.299Z,2.9
2023-01-28T06:34:00.321Z,2.9
2023-01-28T06:35:00.415Z,2.9
2023-01-28T06:36:02.191Z,2.9
2023-01-28T06:37:00.329Z,2.9
2023-01-28T06:38:00.303Z,2.9
2023-01-28T06:39:00.294Z,2.9
2023-01-28T06:40:00.309Z,2.9
2023-01-28T06:41:01.132Z,2.9
2023-01-28T06:42:00.332Z,2.9
2023-01-28T06:43:00.304Z,2.9
2023-01-28T06:44:00.340Z,2.9
2023-01-28T06:45:00.306Z,2.9
2023-01-28T06:46:00.751Z,2.9
2023-01-28T06:47:00.303Z,2.9
2023-01-28T06:48:00.305Z,2.9
2023-01-28T06:49:00.305Z,2.9
2023-01-28T06:50:00.359Z,2.9
2023-01-28T06:51:00.341Z,2.9
2023-01-28T06:52:00.299Z,2.9
2023-01-28T06:53:00.321Z,2.9
2023-01-28T06:54:00.366Z,2.9
2023-01-28T06:55:00.356Z,2.9
2023-01-28T06:56:00.360Z,2.9
2023-01-28T06:57:00.320Z,2.9
2023-01-28T06:58:00.322Z,2.4
2023-01-28T06:59:00.391Z,2.4
2023-01-28T07:00:00.310Z,2.4
2023-01-28T07:01:00.311Z,2.4
2023-01-28T07:02:00.368Z,2.4
2023-01-28T07:03:00.318Z,2.4
2023-01-28T07:04:00.324Z,2.4
2023-01-28T07:05:00.317Z,2.4
2023-01-28T07:06:00.346Z,2.4
2023-01-28T07:07:00.301Z,2.4
2023-01-28T07:08:00.327Z,2.4
2023-01-28T07:09:00.355Z,2.4
2023-01-28T07:10:00.337Z,2.4
2023-01-28T07:11:00.307Z,2.4
2023-01-28T07:12:00.344Z,2.4
2023-01-28T07:13:00.356Z,2.4
2023-01-28T07:14:00.327Z,2.4
2023-01-28T07:15:00.363Z,2.4
2023-01-28T07:16:00.640Z,2.4
2023-01-28T07:17:00.315Z,2.4
2023-01-28T07:18:01.092Z,2.8
2023-01-28T07:19:00.331Z,2.8
2023-01-28T07:20:00.291Z,2.8
2023-01-28T07:21:00.322Z,2.8
2023-01-28T07:22:00.302Z,2.8
2023-01-28T07:23:00.298Z,2.8
2023-01-28T07:24:00.419Z,2.8
2023-01-28T07:25:00.331Z,2.8
2023-01-28T07:26:02.069Z,2.8
2023-01-28T07:27:00.322Z,2.8
2023-01-28T07:28:00.353Z,2.8
2023-01-28T07:29:00.321Z,2.8
2023-01-28T07:30:00.366Z,2.8
2023-01-28T07:31:00.397Z,2.8
2023-01-28T07:32:00.361Z,2.8
2023-01-28T07:33:00.305Z,2.8
2023-01-28T07:34:00.336Z,2.8
2023-01-28T07:35:00.301Z,2.8
2023-01-28T07:36:00.294Z,2.8
2023-01-28T07:37:00.320Z,2.8
2023-01-28T07:38:00.695Z,3.1
2023-01-28T07:39:00.312Z,3.1
2023-01-28T07:40:00.411Z,3.1
2023-01-28T07:41:00.318Z,3.1
2023-01-28T07:42:00.564Z,3.1
2023-01-28T07:43:00.327Z,3.1
2023-01-28T07:44:00.325Z,3.1
2023-01-28T07:45:00.299Z,3.1
2023-01-28T07:46:00.362Z,3.1
2023-01-28T07:47:00.386Z,3.1
2023-01-28T07:48:01.405Z,3.1
2023-01-28T07:49:00.324Z,3.1
2023-01-28T07:50:00.359Z,3.1
2023-01-28T07:51:00.347Z,3.1
2023-01-28T07:52:00.347Z,3.1
2023-01-28T07:53:02.350Z,3.1
2023-01-28T07:54:00.303Z,3.1
2023-01-28T07:55:00.290Z,3.1
2023-01-28T07:56:00.849Z,3.1
2023-01-28T07:57:00.306Z,3.1
2023-01-28T07:58:00.977Z,3.0
2023-01-28T07:59:00.344Z,3.0
2023-01-28T08:00:00.321Z,3.0
2023-01-28T08:01:00.958Z,3.0
2023-01-28T08:02:00.511Z,3.0
2023-01-28T08:03:02.922Z,3.0
2023-01-28T08:04:00.351Z,3.0
2023-01-28T08:05:00.369Z,3.0
2023-01-28T08:06:00.559Z,3.0
2023-01-28T08:07:00.331Z,3.0
2023-01-28T08:08:00.329Z,3.0
2023-01-28T08:09:00.326Z,3.0
2023-01-28T08:10:00.443Z,3.0
2023-01-28T08:11:05.408Z,3.0
2023-01-28T08:12:00.792Z,3.0
2023-01-28T08:13:00.420Z,3.0
2023-01-28T08:14:00.375Z,3.0
2023-01-28T08:15:00.303Z,3.0
2023-01-28T08:16:00.401Z,3.0
2023-01-28T08:17:00.329Z,3.0
2023-01-28T08:18:00.349Z,3.0
2023-01-28T08:19:00.298Z,3.0
2023-01-28T08:20:00.291Z,3.0
2023-01-28T08:21:00.305Z,3.0
2023-01-28T08:22:00.298Z,3.0
2023-01-28T08:23:10.271Z,3.0
2023-01-28T08:24:00.395Z,3.0
2023-01-28T08:25:00.304Z,3.0
2023-01-28T08:26:00.314Z,3.0
2023-01-28T08:27:00.297Z,3.0
2023-01-28T08:28:00.620Z,3.0
2023-01-28T08:29:00.293Z,3.0
2023-01-28T08:30:00.312Z,3.0
2023-01-28T08:31:00.496Z,3.0
2023-01-28T08:32:00.330Z,3.0
2023-01-28T08:33:00.470Z,3.0
2023-01-28T08:34:02.223Z,3.0
2023-01-28T08:35:00.302Z,3.0
2023-01-28T08:36:02.428Z,3.0
2023-01-28T08:37:00.329Z,3.0
2023-01-28T08:38:01.166Z,2.5
2023-01-28T08:39:00.316Z,2.5
2023-01-28T08:40:00.336Z,2.5
2023-01-28T08:41:00.300Z,2.5
2023-01-28T08:42:00.387Z,2.5
2023-01-28T08:43:00.538Z,2.5
2023-01-28T08:44:00.319Z,2.5
2023-01-28T08:45:00.325Z,2.5
2023-01-28T08:46:00.365Z,2.5
2023-01-28T08:47:00.293Z,2.5
2023-01-28T08:48:01.320Z,2.5
2023-01-28T08:49:00.316Z,2.5
2023-01-28T08:50:00.335Z,2.5
2023-01-28T08:51:00.314Z,2.5
2023-01-28T08:52:00.290Z,2.5
2023-01-28T08:53:01.566Z,2.5
2023-01-28T08:54:00.435Z,2.5
2023-01-28T08:55:00.291Z,2.5
2023-01-28T08:56:00.317Z,2.5
2023-01-28T08:57:00.303Z,2.5
2023-01-28T08:58:02.471Z,2.7
2023-01-28T08:59:00.323Z,2.7
2023-01-28T09:00:00.321Z,2.7
2023-01-28T09:01:07.526Z,2.7
2023-01-28T09:02:00.314Z,2.7
2023-01-28T09:03:00.333Z,2.7
2023-01-28T09:04:00.355Z,2.7
2023-01-28T09:05:00.316Z,2.7
2023-01-28T09:06:00.767Z,2.7
2023-01-28T09:07:00.346Z,2.7
2023-01-28T09:08:01.326Z,2.7
2023-01-28T09:09:00.555Z,2.7
2023-01-28T09:10:00.346Z,2.7
2023-01-28T09:11:00.310Z,2.7
2023-01-28T09:12:00.315Z,2.7
2023-01-28T09:13:04.071Z,2.7
2023-01-28T09:14:00.329Z,2.7
2023-01-28T09:15:00.291Z,2.7
2023-01-28T09:16:03.337Z,2.7
2023-01-28T09:17:00.319Z,2.7
2023-01-28T09:18:00.541Z,3.0
2023-01-28T09:19:00.316Z,3.0
2023-01-28T09:20:00.316Z,3.0
2023-01-28T09:21:03.087Z,3.0
2023-01-28T09:22:02.197Z,3.0
2023-01-28T09:23:01.088Z,3.0
2023-01-28T09:24:00.336Z,3.0
2023-01-28T09:25:00.319Z,3.0
2023-01-28T09:26:00.794Z,3.0
2023-01-28T09:27:00.307Z,3.0
2023-01-28T09:28:00.718Z,3.0
2023-01-28T09:29:00.317Z,3.0
2023-01-28T09:30:00.321Z,3.0
2023-01-28T09:31:01.528Z,3.0
2023-01-28T09:32:00.353Z,3.0
2023-01-28T09:33:00.348Z,3.0
2023-01-28T09:34:00.299Z,3.0
2023-01-28T09:35:00.395Z,3.0
2023-01-28T09:36:01.229Z,3.0
2023-01-28T09:37:00.481Z,3.0
2023-01-28T09:38:00.323Z,3.1
2023-01-28T09:39:01.750Z,3.1
2023-01-28T09:40:00.608Z,3.1
2023-01-28T09:41:01.466Z,3.1
2023-01-28T09:42:10.238Z,3.1
2023-01-28T09:43:10.252Z,3.1
2023-01-28T09:44:10.250Z,3.1
2023-01-28T09:45:00.277Z,3.1
2023-01-28T09:46:03.168Z,3.1
2023-01-28T09:47:02.872Z,3.1
2023-01-28T09:48:01.749Z,3.1
2023-01-28T09:49:02.497Z,3.1
2023-01-28T09:50:03.633Z,3.1
2023-01-28T09:51:00.408Z,3.1
2023-01-28T09:52:00.298Z,3.1
2023-01-28T09:53:05.147Z,3.1
2023-01-28T09:54:04.847Z,3.1
2023-01-28T09:55:10.251Z,3.1
2023-01-28T09:56:01.870Z,3.1
2023-01-28T09:57:06.359Z,3.1
2023-01-28T09:58:00.396Z,2.7
2023-01-28T09:59:05.313Z,2.7
2023-01-28T10:00:00.327Z,2.7
2023-01-28T10:01:10.311Z,2.7
2023-01-28T10:02:10.250Z,2.7
2023-01-28T10:03:00.320Z,2.7
2023-01-28T10:04:10.299Z,2.7
2023-01-28T10:05:10.227Z,2.7
2023-01-28T10:06:03.563Z,2.7
2023-01-28T10:07:01.308Z,2.7
2023-01-28T10:08:10.259Z,2.7
2023-01-28T10:09:10.253Z,2.7
2023-01-28T10:10:01.286Z,2.7
2023-01-28T10:11:04.597Z,2.7
2023-01-28T10:12:10.279Z,2.7
2023-01-28T10:13:06.723Z,2.7
2023-01-28T10:14:07.927Z,2.7
2023-01-28T10:15:10.262Z,2.7
2023-01-28T10:16:10.254Z,2.7
2023-01-28T10:17:10.290Z,2.4
2023-01-28T10:18:15.982Z,2.4
2023-01-28T10:19:04.018Z,2.4
2023-01-28T10:20:07.922Z,2.4
2023-01-28T10:21:04.696Z,2.4
2023-01-28T10:22:04.657Z,2.4
2023-01-28T10:23:05.778Z,2.4
2023-01-28T10:24:03.722Z,2.4
2023-01-28T10:25:03.212Z,2.4
2023-01-28T10:26:04.492Z,2.4
2023-01-28T10:27:01.599Z,2.4
2023-01-28T10:28:00.948Z,2.4
2023-01-28T10:29:04.120Z,2.4
2023-01-28T10:30:10.261Z,2.4
2023-01-28T10:31:00.396Z,2.4
2023-01-28T10:32:03.538Z,2.4
2023-01-28T10:33:00.310Z,2.4
2023-01-28T10:34:00.948Z,2.4
2023-01-28T10:35:00.456Z,2.4
2023-01-28T10:36:00.371Z,2.4
2023-01-28T10:37:00.295Z,2.7
2023-01-28T10:38:03.171Z,2.7
2023-01-28T10:39:00.311Z,2.7
2023-01-28T10:40:00.479Z,2.7
2023-01-28T10:41:01.679Z,2.7
2023-01-28T10:42:00.331Z,2.7
2023-01-28T10:43:00.308Z,2.7
2023-01-28T10:44:00.383Z,2.7
2023-01-28T10:45:04.833Z,2.7
2023-01-28T10:46:07.680Z,2.7
2023-01-28T10:47:03.640Z,2.7
2023-01-28T10:48:06.017Z,2.7
2023-01-28T10:49:04.977Z,2.7
2023-01-28T10:50:00.686Z,2.7
2023-01-28T10:51:01.193Z,2.7
2023-01-28T10:52:09.409Z,2.7
2023-01-28T10:53:01.453Z,2.7
2023-01-28T10:54:00.636Z,2.7
2023-01-28T10:55:02.700Z,2.7
2023-01-28T10:56:01.509Z,2.7
2023-01-28T10:57:01.666Z,3.0
2023-01-28T10:58:03.149Z,3.0
2023-01-28T10:59:02.881Z,3.0
2023-01-28T11:00:10.231Z,3.0
2023-01-28T11:01:01.727Z,3.0
2023-01-28T11:02:03.154Z,3.0
2023-01-28T11:03:00.307Z,3.0
2023-01-28T11:04:00.333Z,3.0
2023-01-28T11:05:02.465Z,3.0
2023-01-28T11:06:00.977Z,3.0
2023-01-28T11:07:01.425Z,3.0
2023-01-28T11:08:02.645Z,3.0
2023-01-28T11:09:01.503Z,3.0
2023-01-28T11:10:00.585Z,3.0
2023-01-28T11:11:00.319Z,3.0
2023-01-28T11:12:10.259Z,3.0
2023-01-28T11:13:01.571Z,3.0
2023-01-28T11:14:00.298Z,3.0
2023-01-28T11:15:02.267Z,3.0
2023-01-28T11:16:05.210Z,3.0
2023-01-28T11:17:00.342Z,2.8
2023-01-28T11:18:01.897Z,2.8
2023-01-28T11:19:02.605Z,2.8
2023-01-28T11:20:08.150Z,2.8
2023-01-28T11:21:02.232Z,2.8
2023-01-28T11:22:00.934Z,2.8
2023-01-28T11:23:00.356Z,2.8
2023-01-28T11:24:02.628Z,2.8
2023-01-28T11:25:01.896Z,2.8
2023-01-28T11:26:05.249Z,2.8
2023-01-28T11:27:08.796Z,2.8
2023-01-28T11:28:01.963Z,2.8
2023-01-28T11:29:00.440Z,2.8
2023-01-28T11:30:01.224Z,2.8
2023-01-28T11:31:01.888Z,2.8
2023-01-28T11:32:00.444Z,2.8
2023-01-28T11:33:10.231Z,2.8
2023-01-28T11:34:01.643Z,2.8
2023-01-28T11:35:00.340Z,2.8
2023-01-28T11:36:10.258Z,2.8
2023-01-28T11:37:01.833Z,3.0
2023-01-28T11:38:00.496Z,3.0
2023-01-28T11:39:02.217Z,3.0
2023-01-28T11:40:02.115Z,3.0
2023-01-28T11:41:00.499Z,3.0
2023-01-28T11:42:10.272Z,3.0
2023-01-28T11:43:00.310Z,3.0
2023-01-28T11:44:10.255Z,3.0
2023-01-28T11:45:00.349Z,3.0
2023-01-28T11:46:09.573Z,3.0
2023-01-28T11:47:06.519Z,3.0
2023-01-28T11:48:01.314Z,3.0
2023-01-28T11:49:00.284Z,3.0
2023-01-28T11:50:10.230Z,3.0
2023-01-28T11:51:08.865Z,3.0
2023-01-28T11:52:01.323Z,3.0
2023-01-28T11:53:10.231Z,3.0
2023-01-28T11:54:10.225Z,3.0
2023-01-28T11:55:10.254Z,3.0
2023-01-28T11:56:10.232Z,3.0
2023-01-28T11:57:00.285Z,2.9
2023-01-28T11:58:10.264Z,2.9
2023-01-28T11:59:10.249Z,2.9
2023-01-28T12:00:01.319Z,2.9
2023-01-28T12:01:07.234Z,2.9
2023-01-28T12:02:10.252Z,2.9
2023-01-28T12:03:00.307Z,2.9
2023-01-28T12:04:10.239Z,2.9
2023-01-28T12:05:03.624Z,2.9
2023-01-28T12:06:10.228Z,2.9
2023-01-28T12:07:06.936Z,2.9
2023-01-28T12:08:10.264Z,2.9
2023-01-28T12:09:10.254Z,2.9
2023-01-28T12:10:04.135Z,2.9
2023-01-28T12:11:01.323Z,2.9
2023-01-28T12:12:02.619Z,2.9
2023-01-28T12:13:00.276Z,2.9
2023-01-28T12:14:09.432Z,2.9
2023-01-28T12:15:06.260Z,2.9
2023-01-28T12:16:06.300Z,2.9
2023-01-28T12:17:07.459Z,2.5
2023-01-28T12:18:10.263Z,2.5
2023-01-28T12:19:07.635Z,2.5
2023-01-28T12:20:07.800Z,2.5
2023-01-28T12:21:00.304Z,2.5
2023-01-28T12:22:10.256Z,2.5
2023-01-28T12:23:06.159Z,2.5
2023-01-28T12:24:10.319Z,2.5
2023-01-28T12:25:10.246Z,2.5
2023-01-28T12:26:01.314Z,2.5
2023-01-28T12:27:01.286Z,2.5
2023-01-28T12:28:10.256Z,2.5
2023-01-28T12:29:10.253Z,2.5
2023-01-28T12:30:09.934Z,2.5
2023-01-28T12:31:10.336Z,2.5
2023-01-28T12:32:07.790Z,2.5
2023-01-28T12:33:10.254Z,2.5
2023-01-28T12:34:10.255Z,2.5
2023-01-28T12:35:10.254Z,2.5
2023-01-28T12:36:00.278Z,2.5
2023-01-28T12:37:10.238Z,2.4
2023-01-28T12:38:10.238Z,2.4
2023-01-28T12:39:10.230Z,2.4
2023-01-28T12:40:07.687Z,2.4
2023-01-28T12:41:04.376Z,2.4
2023-01-28T12:42:01.288Z,2.4
2023-01-28T12:43:04.227Z,2.4
2023-01-28T12:44:02.620Z,2.4
2023-01-28T12:45:10.253Z,2.4
2023-01-28T12:46:03.728Z,2.4
2023-01-28T12:47:04.302Z,2.4
2023-01-28T12:48:03.587Z,2.4
2023-01-28T12:49:01.285Z,2.4
2023-01-28T12:50:09.818Z,2.4
2023-01-28T12:51:03.724Z,2.4
2023-01-28T12:52:01.291Z,2.4
2023-01-28T12:53:02.773Z,2.4
2023-01-28T12:54:03.197Z,2.4
2023-01-28T12:55:10.257Z,2.4
2023-01-28T12:56:10.252Z,2.4
2023-01-28T12:57:01.651Z,2.1
2023-01-28T12:58:00.831Z,2.1
2023-01-28T12:59:09.204Z,2.1
2023-01-28T13:00:01.315Z,2.1
2023-01-28T13:01:03.976Z,2.1
2023-01-28T13:02:00.356Z,2.1
2023-01-28T13:03:08.915Z,2.1
2023-01-28T13:04:07.681Z,2.1
2023-01-28T13:05:10.265Z,2.1
2023-01-28T13:06:04.973Z,2.1
2023-01-28T13:07:04.125Z,2.1
2023-01-28T13:08:03.592Z,2.1
2023-01-28T13:09:05.301Z,2.1
2023-01-28T13:10:04.155Z,2.1
2023-01-28T13:11:01.668Z,2.1
2023-01-28T13:12:00.879Z,2.1
2023-01-28T13:13:01.095Z,2.1
2023-01-28T13:14:01.272Z,2.1
2023-01-28T13:15:00.784Z,2.1
2023-01-28T13:16:01.251Z,2.1
2023-01-28T13:17:08.397Z,2.3
2023-01-28T13:18:01.771Z,2.3
2023-01-28T13:19:10.249Z,2.3
2023-01-28T13:20:00.315Z,2.3
2023-01-28T13:21:01.308Z,2.3
2023-01-28T13:22:08.461Z,2.3
2023-01-28T13:23:02.538Z,2.3
2023-01-28T13:24:00.288Z,2.3
2023-01-28T13:25:10.230Z,2.3
2023-01-28T13:26:10.249Z,2.3
2023-01-28T13:27:10.078Z,2.3
2023-01-28T13:28:01.824Z,2.3
2023-01-28T13:29:10.253Z,2.3
2023-01-28T13:30:03.305Z,2.3
2023-01-28T13:31:02.382Z,2.3
2023-01-28T13:32:01.404Z,2.3
2023-01-28T13:33:02.357Z,2.3
2023-01-28T13:34:01.691Z,2.3
2023-01-28T13:35:10.231Z,2.3
2023-01-28T13:36:02.861Z,2.3
2023-01-28T13:37:05.628Z,2.1
2023-01-28T13:38:10.268Z,2.1
2023-01-28T13:39:00.312Z,2.1
2023-01-28T13:40:05.005Z,2.1
2023-01-28T13:41:00.406Z,2.1
2023-01-28T13:42:09.358Z,2.1
2023-01-28T13:43:02.321Z,2.1
2023-01-28T13:44:00.354Z,2.1
2023-01-28T13:45:10.228Z,2.1
2023-01-28T13:46:02.549Z,2.1